createdAt,value
2018-08-23T00:01:26.848Z,22.17
2018-08-23T00:03:56.779Z,19.48
2018-08-23T00:06:25.404Z,16.35
2018-08-23T00:08:53.876Z,20.08
2018-08-23T00:11:23.136Z,17.32
2018-08-23T00:13:51.718Z,21.82
2018-08-23T00:16:36.082Z,20.23
2018-08-23T00:19:04.895Z,20.70
2018-08-23T00:21:37.840Z,23.05
2018-08-23T00:24:09.391Z,20.97
2018-08-23T00:26:38.908Z,22.32
2018-08-23T00:29:13.605Z,24.40
2018-08-23T00:31:42.106Z,22.02
2018-08-23T00:34:11.303Z,23.75
2018-08-23T00:36:40.706Z,22.35
2018-08-23T00:39:10.001Z,23.38
2018-08-23T00:41:38.652Z,22.65
2018-08-23T00:44:07.115Z,22.93
2018-08-23T00:46:35.792Z,22.77
2018-08-23T00:49:04.243Z,23.87
2018-08-23T00:51:36.312Z,20.48
2018-08-23T00:54:05.050Z,23.70
2018-08-23T00:56:33.813Z,20.32
2018-08-23T00:59:03.219Z,25.52
2018-08-23T01:01:32.658Z,26.80
2018-08-23T01:04:01.205Z,25.92
2018-08-23T01:06:43.443Z,20.17
2018-08-23T01:09:12.855Z,23.40
2018-08-23T01:11:41.249Z,24.87
2018-08-23T01:14:10.097Z,19.45
2018-08-23T01:16:39.678Z,22.25
2018-08-23T01:19:13.380Z,26.60
2018-08-23T01:21:45.717Z,22.20
2018-08-23T01:24:14.288Z,25.35
2018-08-23T01:26:43.061Z,26.52
2018-08-23T01:29:25.706Z,26.27
2018-08-23T01:31:54.637Z,21.30
2018-08-23T01:34:22.983Z,25.72
2018-08-23T01:36:51.420Z,27.02
2018-08-23T01:39:24.393Z,24.27
2018-08-23T01:41:55.706Z,26.15
2018-08-23T01:44:29.755Z,24.98
2018-08-23T01:46:59.870Z,25.50
2018-08-23T01:49:29.159Z,25.37
2018-08-23T01:51:58.172Z,24.72
2018-08-23T01:54:29.973Z,25.15
2018-08-23T01:57:02.069Z,24.70
2018-08-23T01:59:36.865Z,23.30
2018-08-23T02:02:09.553Z,22.20
2018-08-23T02:04:38.112Z,23.62
2018-08-23T02:07:06.552Z,21.10
2018-08-23T02:09:34.899Z,24.72
2018-08-23T02:12:03.401Z,21.37
2018-08-23T02:14:37.011Z,21.02
2018-08-23T02:17:05.564Z,22.20
2018-08-23T02:19:39.400Z,21.80
2018-08-23T02:22:07.876Z,20.45
2018-08-23T02:24:36.418Z,21.60
2018-08-23T02:27:04.781Z,21.48
2018-08-23T02:29:40.507Z,20.80
2018-08-23T02:32:09.825Z,21.45
2018-08-23T02:34:42.568Z,19.73
2018-08-23T02:37:13.133Z,22.75
2018-08-23T02:39:42.594Z,19.95
2018-08-23T02:42:13.055Z,21.60
2018-08-23T02:44:42.159Z,17.45
2018-08-23T02:47:10.470Z,19.77
2018-08-23T02:49:39.499Z,17.00
2018-08-23T02:52:07.934Z,20.25
2018-08-23T02:54:43.169Z,18.35
2018-08-23T02:57:12.045Z,19.80
2018-08-23T02:59:40.461Z,19.30
2018-08-23T03:02:12.984Z,21.35
2018-08-23T03:04:41.444Z,20.90
2018-08-23T03:07:09.872Z,19.60
2018-08-23T03:09:39.569Z,20.27
2018-08-23T03:12:09.142Z,19.57
2018-08-23T03:14:37.616Z,20.15
2018-08-23T03:17:19.737Z,26.87
2018-08-23T03:20:15.303Z,21.77
2018-08-23T03:22:44.979Z,21.33
2018-08-23T03:25:14.676Z,23.05
2018-08-23T03:27:43.236Z,24.55
2018-08-23T03:30:12.787Z,23.83
2018-08-23T03:32:41.465Z,26.65
2018-08-23T03:35:09.915Z,24.87
2018-08-23T03:37:39.061Z,24.90
2018-08-23T03:40:07.831Z,22.37
2018-08-23T03:42:36.256Z,25.75
2018-08-23T03:45:04.794Z,21.73
2018-08-23T03:47:38.985Z,25.60
2018-08-23T03:50:08.314Z,23.77
2018-08-23T03:52:41.059Z,25.82
2018-08-23T03:55:10.672Z,27.07
2018-08-23T03:57:44.743Z,30.85
2018-08-23T04:00:13.162Z,26.52
2018-08-23T04:02:41.613Z,29.05
2018-08-23T04:05:15.883Z,27.73
2018-08-23T04:07:44.749Z,21.95
2018-08-23T04:10:13.058Z,22.70
2018-08-23T04:12:42.501Z,24.65
2018-08-23T04:15:30.209Z,28.07
2018-08-23T04:18:02.714Z,26.70
2018-08-23T04:20:31.133Z,28.12
2018-08-23T04:22:59.572Z,30.95
2018-08-23T04:25:27.828Z,27.48
2018-08-23T04:27:56.352Z,30.45
2018-08-23T04:30:24.806Z,30.60
2018-08-23T04:32:53.160Z,31.12
2018-08-23T04:35:24.457Z,29.72
2018-08-23T04:37:54.392Z,29.63
2018-08-23T04:40:22.700Z,30.05
2018-08-23T04:43:08.023Z,30.60
2018-08-23T04:45:36.551Z,35.35
2018-08-23T04:48:06.149Z,31.00
2018-08-23T04:50:40.410Z,29.87
2018-08-23T04:53:08.797Z,30.92
2018-08-23T04:55:37.499Z,27.70
2018-08-23T04:58:05.986Z,30.17
2018-08-23T05:00:34.473Z,27.42
2018-08-23T05:03:02.911Z,28.05
2018-08-23T05:05:31.234Z,27.90
2018-08-23T05:07:59.673Z,26.68
2018-08-23T05:10:27.978Z,28.98
2018-08-23T05:12:56.393Z,29.87
2018-08-23T05:15:24.761Z,31.77
2018-08-23T05:17:53.048Z,28.17
2018-08-23T05:20:21.442Z,30.32
2018-08-23T05:22:56.105Z,26.17
2018-08-23T05:25:25.092Z,28.47
2018-08-23T05:28:09.326Z,30.82
2018-08-23T05:30:37.717Z,34.25
2018-08-23T05:33:13.956Z,31.23
2018-08-23T05:35:42.660Z,31.17
2018-08-23T05:38:11.548Z,33.42
2018-08-23T05:40:48.759Z,29.30
2018-08-23T05:43:17.285Z,30.45
2018-08-23T05:45:48.049Z,29.00
2018-08-23T05:48:22.880Z,29.20
2018-08-23T05:50:51.659Z,28.32
2018-08-23T05:53:20.648Z,29.90
2018-08-23T05:55:52.218Z,32.23
2018-08-23T05:58:23.288Z,25.72
2018-08-23T06:00:51.871Z,25.62
2018-08-23T06:03:20.253Z,25.82
2018-08-23T06:05:49.244Z,26.95
2018-08-23T06:08:17.729Z,23.32
2018-08-23T06:10:48.200Z,26.02
2018-08-23T06:13:17.632Z,26.00
2018-08-23T06:15:56.209Z,28.00
2018-08-23T06:18:25.507Z,25.17
2018-08-23T06:20:53.928Z,28.07
2018-08-23T06:23:25.542Z,25.43
2018-08-23T06:25:53.929Z,25.68
2018-08-23T06:28:27.581Z,24.87
2018-08-23T06:30:57.313Z,22.70
2018-08-23T06:33:39.896Z,23.20
2018-08-23T06:36:09.926Z,24.05
2018-08-23T06:38:40.003Z,27.77
2018-08-23T06:41:08.930Z,20.10
2018-08-23T06:43:37.354Z,20.57
2018-08-23T06:46:06.039Z,27.60
2018-08-23T06:48:34.377Z,25.30
2018-08-23T06:51:03.833Z,24.70
2018-08-23T06:53:43.852Z,20.62
2018-08-23T06:56:12.215Z,24.65
2018-08-23T06:58:40.602Z,22.07
2018-08-23T07:01:14.284Z,21.75
2018-08-23T07:03:51.285Z,23.40
2018-08-23T07:06:20.133Z,22.37
2018-08-23T07:08:48.434Z,20.72
2018-08-23T07:11:23.532Z,21.75
2018-08-23T07:13:57.258Z,26.45
2018-08-23T07:16:26.144Z,23.87
2018-08-23T07:18:54.625Z,21.25
2018-08-23T07:21:23.012Z,19.00
2018-08-23T07:23:51.460Z,23.12
2018-08-23T07:26:19.891Z,21.25
2018-08-23T07:28:48.262Z,27.17
2018-08-23T07:31:16.588Z,22.58
2018-08-23T07:33:48.820Z,23.83
2018-08-23T07:36:30.338Z,22.20
2018-08-23T07:38:58.832Z,24.12
2018-08-23T07:41:27.377Z,23.25
2018-08-23T07:43:59.415Z,27.25
2018-08-23T07:46:27.760Z,22.48
2018-08-23T07:48:56.058Z,22.27
2018-08-23T07:51:25.637Z,25.97
2018-08-23T07:53:56.372Z,27.17
2018-08-23T07:56:28.795Z,24.75
2018-08-23T07:58:57.970Z,23.45
2018-08-23T08:01:41.250Z,29.52
2018-08-23T08:04:15.851Z,28.57
2018-08-23T08:06:52.527Z,25.92
2018-08-23T08:09:32.471Z,24.52
2018-08-23T08:12:16.617Z,25.12
2018-08-23T08:14:54.249Z,26.33
2018-08-23T08:17:32.618Z,27.40
2018-08-23T08:20:04.289Z,25.43
2018-08-23T08:22:33.366Z,27.02
2018-08-23T08:25:09.168Z,22.93
2018-08-23T08:27:50.553Z,26.25
2018-08-23T08:30:28.090Z,27.45
2018-08-23T08:32:56.404Z,25.70
2018-08-23T08:35:24.676Z,27.45
2018-08-23T08:37:53.013Z,31.05
2018-08-23T08:40:25.491Z,28.20
2018-08-23T08:42:53.750Z,22.45
2018-08-23T08:45:23.984Z,25.17
2018-08-23T08:47:52.312Z,29.60
2018-08-23T08:50:20.710Z,26.02
2018-08-23T08:52:49.831Z,24.35
2018-08-23T08:55:18.129Z,25.70
2018-08-23T08:57:47.429Z,22.65
2018-08-23T09:00:15.671Z,24.20
2018-08-23T09:02:44.068Z,22.37
2018-08-23T09:05:12.446Z,23.35
2018-08-23T09:07:42.986Z,22.50
2018-08-23T09:10:11.272Z,26.27
2018-08-23T09:12:45.116Z,23.70
2018-08-23T09:15:13.452Z,21.10
2018-08-23T09:17:44.334Z,20.88
2018-08-23T09:20:14.749Z,16.95
2018-08-23T09:22:51.584Z,18.32
2018-08-23T09:25:33.718Z,15.83
2018-08-23T09:28:02.176Z,15.88
2018-08-23T09:30:31.759Z,14.78
2018-08-23T09:33:05.536Z,16.45
2018-08-23T09:35:34.380Z,15.90
2018-08-23T09:38:14.364Z,17.02
2018-08-23T09:40:42.728Z,19.17
2018-08-23T09:43:11.030Z,16.23
2018-08-23T09:45:39.984Z,18.55
2018-08-23T09:48:08.469Z,15.63
2018-08-23T09:50:36.840Z,19.52
2018-08-23T09:53:11.015Z,17.15
2018-08-23T09:55:39.414Z,15.35
2018-08-23T09:58:11.932Z,15.13
2018-08-23T10:03:47.810Z,17.77
2018-08-23T10:06:23.881Z,16.77
2018-08-23T10:10:08.248Z,15.25
2018-08-23T10:12:43.768Z,16.30
2018-08-23T10:15:19.522Z,14.98
2018-08-23T10:17:59.043Z,14.85
2018-08-23T10:20:44.669Z,15.32
2018-08-23T10:23:22.003Z,17.52
2018-08-23T10:27:05.910Z,19.98
2018-08-23T10:29:34.564Z,19.45
2018-08-23T10:32:03.160Z,18.75
2018-08-23T10:34:31.616Z,18.70
2018-08-23T10:37:00.037Z,18.30
2018-08-23T10:39:28.468Z,19.12
2018-08-23T10:41:56.821Z,19.20
2018-08-23T10:44:25.140Z,20.12
2018-08-23T10:46:55.560Z,20.45
2018-08-23T10:49:24.316Z,21.35
2018-08-23T10:51:52.740Z,19.15
2018-08-23T10:54:23.309Z,16.50
2018-08-23T10:56:51.641Z,18.10
2018-08-23T10:59:19.949Z,18.70
2018-08-23T11:01:48.258Z,18.02
2018-08-23T11:04:19.839Z,19.55
2018-08-23T11:06:56.686Z,20.48
2018-08-23T11:09:31.282Z,20.00
2018-08-23T11:12:02.460Z,21.68
2018-08-23T11:14:36.261Z,22.85
2018-08-23T11:17:10.036Z,21.42
2018-08-23T11:19:43.590Z,20.17
2018-08-23T11:22:11.884Z,19.73
2018-08-23T11:24:40.421Z,17.75
2018-08-23T11:27:10.463Z,17.85
2018-08-23T11:29:38.912Z,15.25
2018-08-23T11:32:07.216Z,15.45
2018-08-23T11:34:35.565Z,15.10
2018-08-23T11:37:03.888Z,14.05
2018-08-23T11:39:32.231Z,14.40
2018-08-23T11:42:00.552Z,14.47
2018-08-23T11:44:28.906Z,13.68
2018-08-23T11:46:57.208Z,14.18
2018-08-23T11:49:25.548Z,13.53
2018-08-23T11:51:53.912Z,13.60
2018-08-23T11:54:22.233Z,11.88
2018-08-23T11:56:50.624Z,13.55
2018-08-23T11:59:18.959Z,11.50
2018-08-23T12:01:47.278Z,10.43
2018-08-23T12:04:15.629Z,9.28
2018-08-23T12:06:44.005Z,8.80
2018-08-23T12:09:12.332Z,9.08
2018-08-23T12:11:40.655Z,7.45
2018-08-23T12:14:09.020Z,8.48
2018-08-23T12:16:37.363Z,6.87
2018-08-23T12:19:05.862Z,8.08
2018-08-23T12:21:34.146Z,8.75
2018-08-23T12:24:02.570Z,6.87
2018-08-23T12:26:30.936Z,8.10
2018-08-23T12:29:04.660Z,7.08
2018-08-23T12:31:33.075Z,6.60
2018-08-23T12:34:04.351Z,5.95
2018-08-23T12:36:38.064Z,5.40
2018-08-23T12:39:14.239Z,6.78
2018-08-23T12:41:48.939Z,7.45
2018-08-23T12:44:18.000Z,6.25
2018-08-23T12:46:46.317Z,6.03
2018-08-23T12:49:14.660Z,4.65
2018-08-23T12:51:43.495Z,5.95
2018-08-23T12:54:11.780Z,5.10
2018-08-23T12:56:40.100Z,5.83
2018-08-23T12:59:08.396Z,5.42
2018-08-23T13:01:36.904Z,7.15
2018-08-23T13:04:05.258Z,5.45
2018-08-23T13:06:33.572Z,6.10
2018-08-23T13:09:01.926Z,4.85
2018-08-23T13:11:30.256Z,4.50
2018-08-23T13:13:58.597Z,6.55
2018-08-23T13:16:26.977Z,8.43
2018-08-23T13:18:55.372Z,8.13
2018-08-23T13:21:23.643Z,7.10
2018-08-23T13:23:52.172Z,6.10
2018-08-23T13:26:20.488Z,7.72
2018-08-23T13:28:48.796Z,5.53
2018-08-23T13:31:17.230Z,3.70
2018-08-23T13:33:45.480Z,4.60
2018-08-23T13:36:13.968Z,8.80
2018-08-23T13:38:42.251Z,5.05
2018-08-23T13:41:10.584Z,5.10
2018-08-23T13:43:39.080Z,6.28
2018-08-23T13:46:07.262Z,6.35
2018-08-23T13:48:35.718Z,4.90
2018-08-23T13:51:04.031Z,6.70
2018-08-23T13:53:32.303Z,5.40
2018-08-23T13:56:00.688Z,4.78
2018-08-23T13:58:29.036Z,2.10
2018-08-23T14:00:57.351Z,3.80
2018-08-23T14:03:25.665Z,5.03
2018-08-23T14:05:53.960Z,5.75
2018-08-23T14:08:22.287Z,4.78
2018-08-23T14:10:50.605Z,4.80
2018-08-23T14:13:18.961Z,4.15
2018-08-23T14:15:52.502Z,6.65
2018-08-23T14:18:20.792Z,4.97
2018-08-23T14:20:49.146Z,6.08
2018-08-23T14:23:17.572Z,7.55
2018-08-23T14:25:45.956Z,4.22
2018-08-23T14:28:14.349Z,4.47
2018-08-23T14:30:42.644Z,3.05
2018-08-23T14:33:11.014Z,3.85
2018-08-23T14:35:39.461Z,4.60
2018-08-23T14:38:07.757Z,3.17
2018-08-23T14:40:36.007Z,2.75
2018-08-23T14:43:04.552Z,4.90
2018-08-23T14:45:33.893Z,3.85
2018-08-23T14:48:07.717Z,5.17
2018-08-23T14:50:36.789Z,3.90
2018-08-23T14:53:06.002Z,4.00
2018-08-23T14:55:39.736Z,3.37
2018-08-23T14:58:09.044Z,2.58
2018-08-23T15:00:37.346Z,3.83
2018-08-23T15:03:06.019Z,4.20
2018-08-23T15:05:34.331Z,3.00
2018-08-23T15:08:02.747Z,2.72
2018-08-23T15:10:31.055Z,3.50
2018-08-23T15:12:59.398Z,5.92
2018-08-23T15:15:33.140Z,4.95
2018-08-23T15:18:01.392Z,4.72
2018-08-23T15:20:29.679Z,4.95
2018-08-23T15:22:58.954Z,4.87
2018-08-23T15:25:27.307Z,7.40
2018-08-23T15:27:55.612Z,4.60
2018-08-23T15:30:23.906Z,5.25
2018-08-23T15:32:52.257Z,4.97
2018-08-23T15:35:20.534Z,4.92
2018-08-23T15:37:48.840Z,8.38
2018-08-23T15:40:17.253Z,6.53
2018-08-23T15:42:45.544Z,6.72
2018-08-23T15:45:13.890Z,6.62
2018-08-23T15:47:42.196Z,6.33
2018-08-23T15:50:10.655Z,4.20
2018-08-23T15:52:39.069Z,4.70
2018-08-23T15:55:07.476Z,5.85
2018-08-23T15:57:35.763Z,8.73
2018-08-23T16:00:04.172Z,6.20
2018-08-23T16:02:32.480Z,6.70
2018-08-23T16:05:00.809Z,5.62
2018-08-23T16:07:29.137Z,9.78
2018-08-23T16:09:57.437Z,6.10
2018-08-23T16:12:25.736Z,5.20
2018-08-23T16:14:54.008Z,5.28
2018-08-23T16:17:27.738Z,6.65
2018-08-23T16:20:01.472Z,8.05
2018-08-23T16:22:29.757Z,5.20
2018-08-23T16:24:58.309Z,7.95
2018-08-23T16:27:26.569Z,7.45
2018-08-23T16:29:54.859Z,4.60
2018-08-23T16:32:28.549Z,5.80
2018-08-23T16:34:56.881Z,7.83
2018-08-23T16:37:25.248Z,4.62
2018-08-23T16:39:53.513Z,4.90
2018-08-23T16:42:21.880Z,4.50
2018-08-23T16:44:50.165Z,4.30
2018-08-23T16:47:18.625Z,4.85
2018-08-23T16:49:47.653Z,6.55
2018-08-23T16:52:15.949Z,4.30
2018-08-23T16:54:44.240Z,4.70
2018-08-23T16:57:12.547Z,6.65
2018-08-23T16:59:40.851Z,5.95
2018-08-23T17:02:09.200Z,5.30
2018-08-23T17:04:43.320Z,6.00
2018-08-23T17:07:15.517Z,4.50
2018-08-23T17:09:43.915Z,5.45
2018-08-23T17:12:12.253Z,5.65
2018-08-23T17:14:40.557Z,5.35
2018-08-23T17:17:14.279Z,5.72
2018-08-23T17:19:42.865Z,3.95
2018-08-23T17:22:11.710Z,3.17
2018-08-23T17:24:40.109Z,2.70
2018-08-23T17:27:08.311Z,2.17
2018-08-23T17:29:36.652Z,1.40
2018-08-23T17:32:04.987Z,4.30
2018-08-23T17:34:33.294Z,1.85
2018-08-23T17:37:01.633Z,3.62
2018-08-23T17:39:30.049Z,3.10
2018-08-23T17:42:05.225Z,1.77
2018-08-23T17:44:33.828Z,2.42
2018-08-23T17:47:02.710Z,2.02
2018-08-23T17:49:31.366Z,3.70
2018-08-23T17:51:59.896Z,1.25
2018-08-23T17:54:28.366Z,3.62
2018-08-23T17:56:56.908Z,1.92
2018-08-23T17:59:25.420Z,4.62
2018-08-23T18:01:53.849Z,2.58
2018-08-23T18:04:22.177Z,2.80
2018-08-23T18:06:50.664Z,1.65
2018-08-23T18:09:19.428Z,3.25
2018-08-23T18:11:48.138Z,2.75
2018-08-23T18:14:16.707Z,2.92
2018-08-23T18:16:50.944Z,2.67
2018-08-23T18:19:19.524Z,3.92
2018-08-23T18:21:48.229Z,8.05
2018-08-23T18:24:16.725Z,3.17
2018-08-23T18:26:45.424Z,6.90
2018-08-23T18:29:13.912Z,5.22
2018-08-23T18:31:42.512Z,3.85
2018-08-23T18:34:11.002Z,2.62
2018-08-23T18:36:39.541Z,1.77
2018-08-23T18:39:08.872Z,1.47
2018-08-23T18:41:37.374Z,2.77
2018-08-23T18:44:06.113Z,1.30
2018-08-23T18:46:34.614Z,1.17
2018-08-23T18:49:03.283Z,1.02
2018-08-23T18:51:32.272Z,2.47
2018-08-23T18:54:01.230Z,1.32
2018-08-23T18:56:30.198Z,2.35
2018-08-23T18:58:58.634Z,1.70
2018-08-23T19:01:27.148Z,3.40
2018-08-23T19:03:55.719Z,3.02
2018-08-23T19:06:29.456Z,7.17
2018-08-23T19:08:58.007Z,5.75
2018-08-23T19:11:26.504Z,3.42
2018-08-23T19:13:55.020Z,3.45
2018-08-23T19:16:28.836Z,3.05
2018-08-23T19:18:57.303Z,6.80
2018-08-23T19:21:25.728Z,5.33
2018-08-23T19:23:54.200Z,4.15
2018-08-23T19:26:22.599Z,6.72
2018-08-23T19:28:51.060Z,6.90
2018-08-23T19:31:19.668Z,4.90
2018-08-23T19:33:48.134Z,4.70
2018-08-23T19:36:16.706Z,7.72
2018-08-23T19:38:45.371Z,5.45
2018-08-23T19:41:13.886Z,6.20
2018-08-23T19:43:44.043Z,4.20
2018-08-23T19:46:17.822Z,6.03
2018-08-23T19:48:47.938Z,6.20
2018-08-23T19:51:16.561Z,3.80
2018-08-23T19:53:45.244Z,5.22
2018-08-23T19:56:13.860Z,3.98
2018-08-23T19:58:43.146Z,4.28
2018-08-23T20:01:11.696Z,5.60
2018-08-23T20:03:40.208Z,3.60
2018-08-23T20:06:08.992Z,6.20
2018-08-23T20:08:38.657Z,3.12
2018-08-23T20:11:07.660Z,4.83
2018-08-23T20:13:37.483Z,4.65
2018-08-23T20:16:06.688Z,4.17
2018-08-23T20:18:35.272Z,3.50
2018-08-23T20:21:03.918Z,4.45
2018-08-23T20:23:33.338Z,7.40
2018-08-23T20:26:02.331Z,3.75
2018-08-23T20:28:31.225Z,4.80
2018-08-23T20:30:59.989Z,5.80
2018-08-23T20:33:28.403Z,3.75
2018-08-23T20:35:57.305Z,5.05
2018-08-23T20:38:26.825Z,5.03
2018-08-23T20:40:55.477Z,6.62
2018-08-23T20:43:23.924Z,2.47
2018-08-23T20:45:53.545Z,5.12
2018-08-23T20:48:22.736Z,3.47
2018-08-23T20:50:51.277Z,4.60
2018-08-23T20:53:20.432Z,5.28
2018-08-23T20:55:49.073Z,5.40
2018-08-23T20:58:18.175Z,4.37
2018-08-23T21:00:46.741Z,3.37
2018-08-23T21:03:15.455Z,4.97
2018-08-23T21:05:45.066Z,6.50
2018-08-23T21:08:13.811Z,5.20
2018-08-23T21:10:42.760Z,5.45
2018-08-23T21:13:11.562Z,4.17
2018-08-23T21:15:41.914Z,4.35
2018-08-23T21:18:11.893Z,3.27
2018-08-23T21:20:41.721Z,6.00
2018-08-23T21:23:10.814Z,4.10
2018-08-23T21:25:39.920Z,4.95
2018-08-23T21:28:10.232Z,3.58
2018-08-23T21:30:39.225Z,5.85
2018-08-23T21:33:08.659Z,5.85
2018-08-23T21:35:37.709Z,5.80
2018-08-23T21:38:06.407Z,6.05
2018-08-23T21:40:35.466Z,4.33
2018-08-23T21:43:04.864Z,4.47
2018-08-23T21:45:33.656Z,7.22
2018-08-23T21:48:03.043Z,5.50
2018-08-23T21:50:31.868Z,6.50
2018-08-23T21:53:00.672Z,4.92
2018-08-23T21:55:37.561Z,4.97
2018-08-23T21:58:07.804Z,4.85
2018-08-23T22:00:42.323Z,5.25
2018-08-23T22:03:12.326Z,6.05
2018-08-23T22:05:42.242Z,4.00
2018-08-23T22:10:46.721Z,5.87
2018-08-23T22:13:15.554Z,5.83
2018-08-23T22:15:46.507Z,4.70
2018-08-23T22:18:16.651Z,6.05
2018-08-23T22:20:45.675Z,5.67
2018-08-23T22:23:14.940Z,4.70
2018-08-23T22:25:43.897Z,4.30
2018-08-23T22:28:13.198Z,6.75
2018-08-23T22:30:43.057Z,5.28
2018-08-23T22:33:12.927Z,4.37
2018-08-23T22:35:42.459Z,5.33
2018-08-23T22:38:11.459Z,5.33
2018-08-23T22:40:40.527Z,5.55
2018-08-23T22:43:09.753Z,7.25
2018-08-23T22:45:38.708Z,6.60
2018-08-23T22:51:20.637Z,7.03
2018-08-23T22:53:59.947Z,5.25
2018-08-23T22:56:29.032Z,8.08
2018-08-23T22:59:19.281Z,6.00
2018-08-23T23:07:32.449Z,7.85
2018-08-23T23:13:40.427Z,9.67
2018-08-23T23:16:11.494Z,6.85
2018-08-23T23:18:44.134Z,6.28
2018-08-23T23:21:12.686Z,7.00
2018-08-23T23:23:44.401Z,7.80
2018-08-23T23:26:13.010Z,7.60
2018-08-23T23:28:42.049Z,8.78
2018-08-23T23:31:10.825Z,7.42
2018-08-23T23:33:40.268Z,6.08
2018-08-23T23:36:09.214Z,7.55
2018-08-23T23:38:38.116Z,6.42
2018-08-23T23:41:07.172Z,6.97
2018-08-23T23:43:36.150Z,6.53
2018-08-23T23:46:04.915Z,6.78
2018-08-23T23:48:33.638Z,6.90
2018-08-23T23:51:02.505Z,9.10
2018-08-23T23:53:31.192Z,6.25
2018-08-23T23:56:00.417Z,7.50
2018-08-23T23:58:29.348Z,11.03
